Time,TemperatureF,DewpointF,PressureIn,WindDirection,WindDirectionDegrees,WindSpeedMPH,WindSpeedGustMPH,Humidity,HourlyPrecipIn,Conditions,Clouds,dailyrainin,SoftwareType,DateUTC
2013-05-30 00:00:00,67.8,62.5,29.65,WSW,238,0.0,1.0,83,0.04,,,0.04,Custom v0.1,2013-05-30 05:00:00,
2013-05-30 00:05:00,67.1,62.5,29.65,SSW,199,6.0,8.0,85,0.05,,,0.01,Custom v0.1,2013-05-30 05:05:00,
2013-05-30 00:15:00,65.8,61.8,29.65,SW,216,0.0,0.0,87,0.06,,,0.02,Custom v0.1,2013-05-30 05:15:00,
2013-05-30 00:20:00,65.5,61.8,29.64,SSW,207,5.0,5.0,88,0.06,,,0.02,Custom v0.1,2013-05-30 05:20:00,
2013-05-30 00:25:00,65.2,61.5,29.64,SW,226,0.0,0.0,88,0.06,,,0.02,Custom v0.1,2013-05-30 05:25:00,
2013-05-30 00:35:00,65.0,61.7,29.63,SW,216,0.0,0.0,89,0.06,,,0.02,Custom v0.1,2013-05-30 05:35:00,
2013-05-30 00:40:00,65.0,61.7,29.63,SW,227,0.0,0.0,89,0.06,,,0.02,Custom v0.1,2013-05-30 05:40:00,
2013-05-30 00:45:00,65.0,61.7,29.63,South,175,5.0,8.0,89,0.04,,,0.02,Custom v0.1,2013-05-30 05:45:00,
2013-05-30 00:50:00,65.0,62.0,29.63,WSW,243,3.0,3.0,90,0.04,,,0.02,Custom v0.1,2013-05-30 05:50:00,
2013-05-30 00:55:00,65.0,62.0,29.63,SW,234,0.0,0.0,90,0.02,,,0.02,Custom v0.1,2013-05-30 05:55:00,
2013-05-30 01:00:00,65.2,62.2,29.63,SSE,162,0.0,0.0,90,0.02,,,0.02,Custom v0.1,2013-05-30 06:00:00,
2013-05-30 01:05:00,65.2,62.2,29.63,SSW,193,0.0,0.0,90,0.01,,,0.02,Custom v0.1,2013-05-30 06:05:00,
2013-05-30 01:15:00,65.3,62.0,29.63,SSW,199,0.0,0.0,89,0.00,,,0.02,Custom v0.1,2013-05-30 06:15:00,
2013-05-30 01:20:00,65.3,62.0,29.62,South,182,1.0,2.0,89,0.00,,,0.02,Custom v0.1,2013-05-30 06:20:00,
2013-05-30 01:25:00,65.5,61.8,29.62,SSW,212,3.0,6.0,88,0.00,,,0.02,Custom v0.1,2013-05-30 06:25:00,
2013-05-30 01:35:00,65.6,61.6,29.63,SSW,192,3.0,4.0,87,0.00,,,0.02,Custom v0.1,2013-05-30 06:35:00,
2013-05-30 01:40:00,65.8,61.5,29.63,SSW,206,0.0,0.0,86,0.00,,,0.02,Custom v0.1,2013-05-30 06:40:00,
2013-05-30 01:45:00,65.8,61.5,29.63,WSW,238,5.0,5.0,86,0.00,,,0.02,Custom v0.1,2013-05-30 06:45:00,
2013-05-30 01:50:00,66.0,61.4,29.64,WSW,241,6.0,6.0,85,0.00,,,0.02,Custom v0.1,2013-05-30 06:50:00,
2013-05-30 01:55:00,66.1,61.5,29.64,SSW,193,15.0,15.0,85,0.01,,,0.03,Custom v0.1,2013-05-30 06:55:00,
2013-05-30 02:00:00,66.3,61.7,29.64,SSW,193,5.0,7.0,85,0.01,,,0.03,Custom v0.1,2013-05-30 07:00:00,
2013-05-30 02:05:00,66.3,61.7,29.64,SW,223,2.0,2.0,85,0.01,,,0.03,Custom v0.1,2013-05-30 07:05:00,
2013-05-30 02:15:00,65.5,61.8,29.64,SSW,212,5.0,6.0,88,0.05,,,0.07,Custom v0.1,2013-05-30 07:15:00,
2013-05-30 02:25:00,64.8,62.1,29.63,SSE,166,0.0,0.0,91,0.06,,,0.08,Custom v0.1,2013-05-30 07:25:00,
2013-05-30 02:30:00,64.7,62.3,29.63,SW,230,3.0,3.0,92,0.08,,,0.10,Custom v0.1,2013-05-30 07:30:00,
2013-05-30 02:35:00,64.5,62.1,29.63,SW,231,0.0,0.0,92,0.08,,,0.10,Custom v0.1,2013-05-30 07:35:00,
2013-05-30 02:40:00,64.3,61.9,29.63,South,171,0.0,0.0,92,0.08,,,0.10,Custom v0.1,2013-05-30 07:40:00,
2013-05-30 02:45:00,64.3,62.2,29.63,SW,219,0.0,0.0,93,0.08,,,0.10,Custom v0.1,2013-05-30 07:45:00,
2013-05-30 02:50:00,64.2,62.1,29.64,SW,221,0.0,0.0,93,0.11,,,0.13,Custom v0.1,2013-05-30 07:50:00,
2013-05-30 02:55:00,64.2,62.4,29.64,South,173,0.0,0.0,94,0.10,,,0.13,Custom v0.1,2013-05-30 07:55:00,
2013-05-30 03:00:00,64.0,62.2,29.64,SW,231,0.0,0.0,94,0.11,,,0.14,Custom v0.1,2013-05-30 08:00:00,
2013-05-30 03:05:00,63.9,62.1,29.63,SW,233,0.0,0.0,94,0.13,,,0.16,Custom v0.1,2013-05-30 08:05:00,
2013-05-30 03:10:00,63.9,62.1,29.63,South,176,0.0,0.0,94,0.12,,,0.18,Custom v0.1,2013-05-30 08:10:00,
2013-05-30 03:15:00,63.9,62.4,29.63,South,175,0.0,0.0,95,0.12,,,0.19,Custom v0.1,2013-05-30 08:15:00,
2013-05-30 03:20:00,63.7,62.2,29.63,SE,144,0.0,0.0,95,0.13,,,0.21,Custom v0.1,2013-05-30 08:20:00,
2013-05-30 03:25:00,63.5,62.0,29.63,SSW,200,0.0,0.0,95,0.14,,,0.22,Custom v0.1,2013-05-30 08:25:00,
2013-05-30 03:30:00,63.5,62.0,29.63,SW,216,0.0,1.0,95,0.12,,,0.22,Custom v0.1,2013-05-30 08:30:00,
2013-05-30 03:40:00,63.4,61.9,29.62,SSE,155,3.0,3.0,95,0.16,,,0.26,Custom v0.1,2013-05-30 08:40:00,
2013-05-30 03:50:00,63.2,61.7,29.63,SSE,148,3.0,3.0,95,0.18,,,0.31,Custom v0.1,2013-05-30 08:50:00,
2013-05-30 03:55:00,63.2,61.7,29.63,SSE,149,0.0,0.0,95,0.18,,,0.31,Custom v0.1,2013-05-30 08:55:00,
2013-05-30 04:00:00,63.1,61.6,29.63,South,185,0.0,0.0,95,0.18,,,0.32,Custom v0.1,2013-05-30 09:00:00,
2013-05-30 04:05:00,63.1,61.6,29.61,SSE,156,6.0,6.0,95,0.17,,,0.33,Custom v0.1,2013-05-30 09:05:00,
2013-05-30 04:10:00,63.1,61.6,29.61,SE,127,0.0,0.0,95,0.15,,,0.33,Custom v0.1,2013-05-30 09:10:00,
2013-05-30 04:15:00,63.1,61.6,29.61,SE,141,2.0,5.0,95,0.15,,,0.34,Custom v0.1,2013-05-30 09:15:00,
2013-05-30 04:20:00,63.1,61.6,29.61,South,185,0.0,0.0,95,0.13,,,0.34,Custom v0.1,2013-05-30 09:20:00,
2013-05-30 04:30:00,63.1,61.6,29.61,SW,219,6.0,6.0,95,0.13,,,0.35,Custom v0.1,2013-05-30 09:30:00,
2013-05-30 04:35:00,62.9,61.4,29.60,East,97,7.0,7.0,95,0.13,,,0.35,Custom v0.1,2013-05-30 09:35:00,
2013-05-30 04:45:00,63.1,61.6,29.60,SSE,159,6.0,6.0,95,0.06,,,0.35,Custom v0.1,2013-05-30 09:45:00,
2013-05-30 04:50:00,63.1,61.6,29.59,ESE,121,6.0,6.0,95,0.04,,,0.35,Custom v0.1,2013-05-30 09:50:00,
2013-05-30 04:55:00,63.1,61.6,29.59,SE,127,0.0,0.0,95,0.04,,,0.35,Custom v0.1,2013-05-30 09:55:00,
2013-05-30 05:00:00,63.1,61.6,29.59,SE,137,6.0,6.0,95,0.03,,,0.35,Custom v0.1,2013-05-30 10:00:00,
2013-05-30 05:05:00,63.2,61.4,29.58,SE,134,6.0,10.0,94,0.03,,,0.36,Custom v0.1,2013-05-30 10:05:00,
2013-05-30 05:10:00,63.2,61.4,29.58,ESE,108,7.0,7.0,94,0.04,,,0.37,Custom v0.1,2013-05-30 10:10:00,
2013-05-30 05:15:00,63.2,61.4,29.58,ESE,123,6.0,6.0,94,0.03,,,0.37,Custom v0.1,2013-05-30 10:15:00,
2013-05-30 05:20:00,63.2,61.4,29.58,ESE,120,0.0,1.0,94,0.03,,,0.37,Custom v0.1,2013-05-30 10:20:00,
2013-05-30 05:30:00,63.2,61.4,29.58,SE,142,0.0,0.0,94,0.03,,,0.38,Custom v0.1,2013-05-30 10:30:00,
2013-05-30 05:35:00,63.2,61.4,29.58,SE,141,0.0,2.0,94,0.03,,,0.38,Custom v0.1,2013-05-30 10:35:00,
2013-05-30 05:40:00,63.2,61.4,29.58,SE,137,0.0,0.0,94,0.03,,,0.38,Custom v0.1,2013-05-30 10:40:00,
2013-05-30 05:45:00,63.2,61.4,29.58,ESE,117,0.0,0.0,94,0.03,,,0.38,Custom v0.1,2013-05-30 10:45:00,
2013-05-30 05:50:00,63.2,61.4,29.57,ESE,113,0.0,0.0,94,0.03,,,0.38,Custom v0.1,2013-05-30 10:50:00,
2013-05-30 05:55:00,63.2,61.4,29.57,SSW,195,0.0,0.0,94,0.03,,,0.38,Custom v0.1,2013-05-30 10:55:00,
2013-05-30 06:00:00,63.4,61.6,29.57,WSW,248,6.0,6.0,94,0.03,,,0.38,Custom v0.1,2013-05-30 11:00:00,
2013-05-30 06:05:00,63.4,61.6,29.58,SW,214,0.0,0.0,94,0.02,,,0.38,Custom v0.1,2013-05-30 11:05:00,
2013-05-30 06:10:00,63.4,61.6,29.58,SW,216,0.0,0.0,94,0.01,,,0.38,Custom v0.1,2013-05-30 11:10:00,
2013-05-30 06:15:00,63.4,61.6,29.58,SSW,206,0.0,0.0,94,0.01,,,0.38,Custom v0.1,2013-05-30 11:15:00,
2013-05-30 06:20:00,63.4,61.6,29.58,South,186,0.0,6.0,94,0.01,,,0.38,Custom v0.1,2013-05-30 11:20:00,
2013-05-30 06:25:00,63.4,61.6,29.58,WSW,251,0.0,0.0,94,0.01,,,0.38,Custom v0.1,2013-05-30 11:25:00,
2013-05-30 06:30:00,63.4,61.6,29.58,SSW,203,3.0,3.0,94,0.00,,,0.38,Custom v0.1,2013-05-30 11:30:00,
2013-05-30 06:35:00,63.4,61.6,29.59,SW,228,5.0,5.0,94,0.00,,,0.38,Custom v0.1,2013-05-30 11:35:00,
2013-05-30 06:40:00,63.4,61.6,29.59,SSW,193,0.0,0.0,94,0.00,,,0.38,Custom v0.1,2013-05-30 11:40:00,
2013-05-30 06:45:00,63.5,61.7,29.59,SSW,203,0.0,0.0,94,0.00,,,0.38,Custom v0.1,2013-05-30 11:45:00,
2013-05-30 06:50:00,63.5,61.7,29.59,SW,214,5.0,5.0,94,0.00,,,0.38,Custom v0.1,2013-05-30 11:50:00,
2013-05-30 06:55:00,63.5,61.7,29.59,SSW,209,0.0,3.0,94,0.00,,,0.38,Custom v0.1,2013-05-30 11:55:00,
2013-05-30 07:00:00,63.7,61.9,29.59,SSE,165,0.0,6.0,94,0.00,,,0.38,Custom v0.1,2013-05-30 12:00:00,
2013-05-30 07:05:00,63.9,62.1,29.60,SW,220,5.0,5.0,94,0.00,,,0.38,Custom v0.1,2013-05-30 12:05:00,
2013-05-30 07:10:00,63.9,62.1,29.60,SSE,149,9.0,9.0,94,0.00,,,0.38,Custom v0.1,2013-05-30 12:10:00,
2013-05-30 07:15:00,64.0,62.2,29.60,SW,214,0.0,3.0,94,0.00,,,0.38,Custom v0.1,2013-05-30 12:15:00,
2013-05-30 07:25:00,64.3,62.2,29.60,SSW,207,2.0,2.0,93,0.00,,,0.38,Custom v0.1,2013-05-30 12:25:00,
2013-05-30 07:30:00,64.5,62.1,29.60,SSE,159,16.0,16.0,92,0.00,,,0.38,Custom v0.1,2013-05-30 12:30:00,
2013-05-30 07:35:00,64.7,62.3,29.60,SSE,165,5.0,11.0,92,0.00,,,0.38,Custom v0.1,2013-05-30 12:35:00,
2013-05-30 07:40:00,64.7,62.3,29.60,SSE,151,9.0,9.0,92,0.00,,,0.38,Custom v0.1,2013-05-30 12:40:00,
2013-05-30 07:45:00,64.7,62.3,29.60,SE,144,3.0,8.0,92,0.01,,,0.39,Custom v0.1,2013-05-30 12:45:00,
2013-05-30 07:50:00,64.7,62.3,29.59,SSW,210,0.0,6.0,92,0.01,,,0.39,Custom v0.1,2013-05-30 12:50:00,
2013-05-30 07:55:00,64.7,62.0,29.59,SSE,152,8.0,8.0,91,0.01,,,0.39,Custom v0.1,2013-05-30 12:55:00,
2013-05-30 08:00:00,64.8,62.1,29.59,SW,220,5.0,5.0,91,0.01,,,0.39,Custom v0.1,2013-05-30 13:00:00,
2013-05-30 08:05:00,64.8,61.8,29.58,SSW,200,0.0,0.0,90,0.01,,,0.39,Custom v0.1,2013-05-30 13:05:00,
2013-05-30 08:10:00,65.0,62.0,29.58,South,186,6.0,6.0,90,0.01,,,0.39,Custom v0.1,2013-05-30 13:10:00,
2013-05-30 08:15:00,65.2,61.9,29.58,South,186,2.0,3.0,89,0.01,,,0.39,Custom v0.1,2013-05-30 13:15:00,
2013-05-30 08:20:00,65.2,61.5,29.59,SE,140,13.0,13.0,88,0.01,,,0.39,Custom v0.1,2013-05-30 13:20:00,
2013-05-30 08:25:00,65.2,61.5,29.59,SSW,213,2.0,2.0,88,0.01,,,0.39,Custom v0.1,2013-05-30 13:25:00,
2013-05-30 08:30:00,65.3,61.6,29.59,South,179,0.0,2.0,88,0.01,,,0.39,Custom v0.1,2013-05-30 13:30:00,
2013-05-30 08:35:00,65.3,61.6,29.60,SSE,166,0.0,8.0,88,0.01,,,0.39,Custom v0.1,2013-05-30 13:35:00,
2013-05-30 08:40:00,65.5,61.8,29.60,SSW,210,0.0,0.0,88,0.01,,,0.39,Custom v0.1,2013-05-30 13:40:00,
2013-05-30 08:45:00,65.6,61.9,29.60,SSW,197,8.0,8.0,88,0.00,,,0.39,Custom v0.1,2013-05-30 13:45:00,
2013-05-30 08:50:00,65.8,62.1,29.60,SSW,192,0.0,0.0,88,0.01,,,0.40,Custom v0.1,2013-05-30 13:50:00,
2013-05-30 08:55:00,66.1,62.4,29.60,South,172,0.0,0.0,88,0.01,,,0.40,Custom v0.1,2013-05-30 13:55:00,
2013-05-30 09:00:00,66.1,62.1,29.60,WSW,241,2.0,14.0,87,0.01,,,0.40,Custom v0.1,2013-05-30 14:00:00,
2013-05-30 09:05:00,66.1,61.8,29.60,East,101,0.0,8.0,86,0.01,,,0.40,Custom v0.1,2013-05-30 14:05:00,
2013-05-30 09:10:00,66.0,61.7,29.60,South,171,0.0,0.0,86,0.01,,,0.40,Custom v0.1,2013-05-30 14:10:00,
2013-05-30 09:15:00,65.8,61.8,29.60,SSE,156,0.0,0.0,87,0.02,,,0.41,Custom v0.1,2013-05-30 14:15:00,
2013-05-30 09:20:00,65.5,61.8,29.60,South,185,1.0,6.0,88,0.03,,,0.42,Custom v0.1,2013-05-30 14:20:00,
2013-05-30 09:25:00,65.3,61.6,29.60,SW,223,4.0,4.0,88,0.04,,,0.43,Custom v0.1,2013-05-30 14:25:00,
2013-05-30 09:30:00,65.2,61.9,29.60,SSE,148,10.0,10.0,89,0.05,,,0.44,Custom v0.1,2013-05-30 14:30:00,
2013-05-30 09:35:00,65.0,62.0,29.61,SSW,199,6.0,6.0,90,0.06,,,0.45,Custom v0.1,2013-05-30 14:35:00,
2013-05-30 09:40:00,64.7,61.7,29.61,SE,142,4.0,4.0,90,0.07,,,0.46,Custom v0.1,2013-05-30 14:40:00,
2013-05-30 09:45:00,64.5,61.8,29.61,SSE,156,6.0,6.0,91,0.08,,,0.47,Custom v0.1,2013-05-30 14:45:00,
2013-05-30 09:50:00,64.5,61.8,29.62,ESE,123,2.0,14.0,91,0.08,,,0.48,Custom v0.1,2013-05-30 14:50:00,
2013-05-30 09:55:00,64.3,61.9,29.62,SSE,152,7.0,7.0,92,0.09,,,0.49,Custom v0.1,2013-05-30 14:55:00,
2013-05-30 10:00:00,64.5,62.1,29.62,SE,132,0.0,0.0,92,0.09,,,0.49,Custom v0.1,2013-05-30 15:00:00,
2013-05-30 10:05:00,64.5,61.8,29.62,South,172,7.0,8.0,91,0.10,,,0.50,Custom v0.1,2013-05-30 15:05:00,
2013-05-30 10:10:00,64.5,61.8,29.62,SSE,154,12.0,12.0,91,0.11,,,0.51,Custom v0.1,2013-05-30 15:10:00,
2013-05-30 10:15:00,64.5,61.8,29.62,SE,128,7.0,7.0,91,0.10,,,0.51,Custom v0.1,2013-05-30 15:15:00,
2013-05-30 10:20:00,64.3,61.3,29.62,SSW,196,0.0,6.0,90,0.09,,,0.51,Custom v0.1,2013-05-30 15:20:00,
2013-05-30 10:25:00,64.3,61.3,29.62,SSE,148,6.0,10.0,90,0.09,,,0.52,Custom v0.1,2013-05-30 15:25:00,
2013-05-30 10:30:00,64.0,61.0,29.62,South,171,7.0,7.0,90,0.08,,,0.52,Custom v0.1,2013-05-30 15:30:00,
2013-05-30 10:35:00,64.0,61.0,29.61,SE,127,0.0,1.0,90,0.08,,,0.53,Custom v0.1,2013-05-30 15:35:00,
2013-05-30 10:40:00,64.0,61.0,29.61,SE,132,2.0,2.0,90,0.08,,,0.54,Custom v0.1,2013-05-30 15:40:00,
2013-05-30 10:45:00,64.0,61.0,29.61,South,183,0.0,0.0,90,0.09,,,0.56,Custom v0.1,2013-05-30 15:45:00,
2013-05-30 10:50:00,64.0,61.3,29.58,SE,140,3.0,3.0,91,0.09,,,0.57,Custom v0.1,2013-05-30 15:50:00,
2013-05-30 10:55:00,64.0,61.6,29.58,SE,134,0.0,0.0,92,0.08,,,0.57,Custom v0.1,2013-05-30 15:55:00,
2013-05-30 11:00:00,64.3,61.9,29.58,SE,141,0.0,2.0,92,0.08,,,0.57,Custom v0.1,2013-05-30 16:00:00,
2013-05-30 11:05:00,65.2,62.8,29.57,SE,124,2.0,2.0,92,0.08,,,0.58,Custom v0.1,2013-05-30 16:05:00,
2013-05-30 11:10:00,66.0,63.3,29.57,SSE,148,8.0,8.0,91,0.07,,,0.58,Custom v0.1,2013-05-30 16:10:00,
2013-05-30 11:15:00,66.6,63.9,29.57,SE,132,0.0,0.0,91,0.07,,,0.58,Custom v0.1,2013-05-30 16:15:00,
2013-05-30 11:20:00,67.8,64.4,29.57,SE,125,0.0,0.0,89,0.07,,,0.58,Custom v0.1,2013-05-30 16:20:00,
2013-05-30 11:25:00,68.4,64.4,29.57,SSE,158,6.0,6.0,87,0.06,,,0.58,Custom v0.1,2013-05-30 16:25:00,
2013-05-30 11:30:00,68.9,64.2,29.57,SSE,148,3.0,3.0,85,0.06,,,0.58,Custom v0.1,2013-05-30 16:30:00,
2013-05-30 11:35:00,69.1,64.1,29.57,East,99,5.0,6.0,84,0.05,,,0.58,Custom v0.1,2013-05-30 16:35:00,
2013-05-30 11:40:00,69.1,64.1,29.57,ESE,123,0.0,0.0,84,0.04,,,0.58,Custom v0.1,2013-05-30 16:40:00,
2013-05-30 11:45:00,69.6,64.6,29.57,East,82,3.0,3.0,84,0.02,,,0.58,Custom v0.1,2013-05-30 16:45:00,
2013-05-30 11:50:00,70.4,65.0,29.57,SE,127,6.0,6.0,83,0.01,,,0.58,Custom v0.1,2013-05-30 16:50:00,
2013-05-30 12:00:00,70.9,65.2,29.57,SSE,164,5.0,5.0,82,0.01,,,0.58,Custom v0.1,2013-05-30 17:00:00,
2013-05-30 12:05:00,71.5,65.8,29.57,ESE,118,0.0,6.0,82,0.00,,,0.58,Custom v0.1,2013-05-30 17:05:00,
2013-05-30 12:10:00,71.8,65.7,29.57,SSW,204,10.0,10.0,81,0.00,,,0.58,Custom v0.1,2013-05-30 17:10:00,
2013-05-30 12:15:00,72.1,66.0,29.57,South,171,0.0,6.0,81,0.00,,,0.58,Custom v0.1,2013-05-30 17:15:00,
2013-05-30 12:20:00,73.2,66.8,29.56,South,186,8.0,8.0,80,0.00,,,0.58,Custom v0.1,2013-05-30 17:20:00,
2013-05-30 12:25:00,74.0,67.2,29.56,SE,130,4.0,7.0,79,0.00,,,0.58,Custom v0.1,2013-05-30 17:25:00,
2013-05-30 12:30:00,74.0,66.5,29.56,SSE,156,3.0,10.0,77,0.00,,,0.58,Custom v0.1,2013-05-30 17:30:00,
2013-05-30 12:35:00,74.0,67.2,29.55,SSW,197,2.0,10.0,79,0.00,,,0.58,Custom v0.1,2013-05-30 17:35:00,
2013-05-30 12:45:00,73.5,66.7,29.55,SSE,148,0.0,10.0,79,0.00,,,0.58,Custom v0.1,2013-05-30 17:45:00,
2013-05-30 12:50:00,73.5,67.4,29.54,SSW,203,13.0,13.0,81,0.03,,,0.61,Custom v0.1,2013-05-30 17:50:00,
2013-05-30 12:55:00,72.8,67.7,29.54,South,186,0.0,3.0,84,0.04,,,0.62,Custom v0.1,2013-05-30 17:55:00,
2013-05-30 13:00:00,72.5,67.8,29.54,ESE,121,7.0,7.0,85,0.04,,,0.62,Custom v0.1,2013-05-30 18:00:00,
2013-05-30 13:05:00,72.5,67.8,29.55,South,182,3.0,8.0,85,0.04,,,0.62,Custom v0.1,2013-05-30 18:05:00,
2013-05-30 13:10:00,72.3,67.9,29.55,WSW,245,18.0,18.0,86,0.04,,,0.62,Custom v0.1,2013-05-30 18:10:00,
2013-05-30 13:15:00,69.4,63.4,29.55,West,260,12.0,12.0,81,0.04,,,0.62,Custom v0.1,2013-05-30 18:15:00,
2013-05-30 13:20:00,67.1,62.5,29.61,WNW,284,16.0,16.0,85,0.04,,,0.62,Custom v0.1,2013-05-30 18:20:00,
2013-05-30 13:25:00,65.2,60.9,29.61,WSW,241,17.0,17.0,86,0.29,,,0.87,Custom v0.1,2013-05-30 18:25:00,
2013-05-30 13:35:00,62.7,60.6,29.61,South,175,0.0,0.0,93,0.51,,,1.09,Custom v0.1,2013-05-30 18:35:00,
2013-05-30 13:40:00,62.6,60.5,29.61,West,267,0.0,0.0,93,0.62,,,1.20,Custom v0.1,2013-05-30 18:40:00,
2013-05-30 13:45:00,62.6,60.8,29.61,SSE,166,0.0,0.0,94,0.64,,,1.22,Custom v0.1,2013-05-30 18:45:00,
2013-05-30 13:50:00,62.6,60.8,29.58,South,189,0.0,0.0,94,0.65,,,1.26,Custom v0.1,2013-05-30 18:50:00,
2013-05-30 13:55:00,62.6,61.1,29.58,SE,124,0.0,0.0,95,0.65,,,1.27,Custom v0.1,2013-05-30 18:55:00,
2013-05-30 14:00:00,62.6,60.8,29.58,SSW,210,0.0,0.0,94,0.67,,,1.29,Custom v0.1,2013-05-30 19:00:00,
2013-05-30 14:05:00,62.6,61.1,29.61,WSW,238,3.0,3.0,95,0.69,,,1.31,Custom v0.1,2013-05-30 19:05:00,
2013-05-30 14:10:00,62.6,61.1,29.61,South,188,0.0,0.0,95,0.71,,,1.33,Custom v0.1,2013-05-30 19:10:00,
2013-05-30 14:20:00,62.7,61.2,29.62,South,182,0.0,0.0,95,0.73,,,1.35,Custom v0.1,2013-05-30 19:20:00,
2013-05-30 14:25:00,62.7,61.2,29.62,SSW,210,0.0,13.0,95,0.48,,,1.35,Custom v0.1,2013-05-30 19:25:00,
2013-05-30 14:30:00,62.7,61.2,29.62,SW,228,0.0,0.0,95,0.32,,,1.36,Custom v0.1,2013-05-30 19:30:00,
2013-05-30 14:35:00,62.9,61.4,29.61,WSW,255,1.0,1.0,95,0.27,,,1.36,Custom v0.1,2013-05-30 19:35:00,
2013-05-30 14:40:00,62.9,61.4,29.61,SW,233,0.0,0.0,95,0.16,,,1.36,Custom v0.1,2013-05-30 19:40:00,
2013-05-30 14:45:00,63.1,61.6,29.61,SSW,213,0.0,0.0,95,0.14,,,1.36,Custom v0.1,2013-05-30 19:45:00,
2013-05-30 14:50:00,63.2,61.7,29.60,SW,217,0.0,0.0,95,0.10,,,1.36,Custom v0.1,2013-05-30 19:50:00,
2013-05-30 14:55:00,63.4,61.9,29.60,SW,217,0.0,0.0,95,0.10,,,1.37,Custom v0.1,2013-05-30 19:55:00,
2013-05-30 15:05:00,64.0,62.5,29.58,SSE,165,0.0,0.0,95,0.07,,,1.38,Custom v0.1,2013-05-30 20:05:00,
2013-05-30 15:10:00,64.3,62.8,29.58,SW,230,0.0,0.0,95,0.05,,,1.38,Custom v0.1,2013-05-30 20:10:00,
2013-05-30 15:15:00,64.5,63.0,29.58,SW,214,0.0,0.0,95,0.76,,,1.38,Custom v0.1,2013-05-30 20:15:00,
2013-05-30 15:20:00,64.5,63.0,29.59,SW,227,0.0,0.0,95,0.04,,,1.39,Custom v0.1,2013-05-30 20:20:00,
2013-05-30 15:25:00,64.5,63.0,29.59,South,189,0.0,0.0,95,0.05,,,1.40,Custom v0.1,2013-05-30 20:25:00,
2013-05-30 15:30:00,64.5,63.0,29.59,SE,128,4.0,4.0,95,0.05,,,1.41,Custom v0.1,2013-05-30 20:30:00,
2013-05-30 15:35:00,64.3,62.8,29.58,SSW,196,0.0,0.0,95,0.05,,,1.41,Custom v0.1,2013-05-30 20:35:00,
2013-05-30 15:45:00,64.5,62.7,29.58,SSW,196,0.0,0.0,94,0.05,,,1.41,Custom v0.1,2013-05-30 20:45:00,
2013-05-30 15:50:00,64.7,62.9,29.58,SSW,192,0.0,0.0,94,0.05,,,1.41,Custom v0.1,2013-05-30 20:50:00,
2013-05-30 15:55:00,64.8,63.0,29.58,SW,223,0.0,0.0,94,0.05,,,1.42,Custom v0.1,2013-05-30 20:55:00,
2013-05-30 16:00:00,65.0,62.9,29.58,South,169,3.0,5.0,93,0.05,,,1.42,Custom v0.1,2013-05-30 21:00:00,
2013-05-30 16:05:00,65.2,63.1,29.57,SW,224,6.0,6.0,93,0.04,,,1.42,Custom v0.1,2013-05-30 21:05:00,
2013-05-30 16:10:00,65.2,62.8,29.57,SSW,192,0.0,0.0,92,0.04,,,1.42,Custom v0.1,2013-05-30 21:10:00,
2013-05-30 16:15:00,65.3,62.9,29.57,SSW,206,0.0,0.0,92,0.05,,,1.43,Custom v0.1,2013-05-30 21:15:00,
2013-05-30 16:20:00,65.3,62.9,29.58,SSW,207,0.0,8.0,92,0.05,,,1.44,Custom v0.1,2013-05-30 21:20:00,
2013-05-30 16:25:00,65.2,62.5,29.58,South,185,0.0,8.0,91,0.05,,,1.45,Custom v0.1,2013-05-30 21:25:00,
2013-05-30 16:30:00,65.0,62.3,29.58,SSE,168,1.0,8.0,91,0.05,,,1.46,Custom v0.1,2013-05-30 21:30:00,
2013-05-30 16:40:00,65.0,62.0,29.57,South,179,1.0,1.0,90,0.11,,,1.47,Custom v0.1,2013-05-30 21:40:00,
2013-05-30 16:45:00,65.0,62.0,29.57,SSW,207,0.0,0.0,90,0.07,,,1.48,Custom v0.1,2013-05-30 21:45:00,
2013-05-30 16:50:00,65.0,61.7,29.54,SSE,152,0.0,5.0,89,0.08,,,1.49,Custom v0.1,2013-05-30 21:50:00,
2013-05-30 16:55:00,64.8,60.8,29.54,SE,140,16.0,16.0,87,0.07,,,1.49,Custom v0.1,2013-05-30 21:55:00,
2013-05-30 17:00:00,65.0,60.4,29.54,SSE,161,1.0,5.0,85,0.08,,,1.50,Custom v0.1,2013-05-30 22:00:00,
2013-05-30 17:05:00,65.0,60.4,29.53,SSE,147,0.0,2.0,85,0.08,,,1.50,Custom v0.1,2013-05-30 22:05:00,
2013-05-30 17:10:00,64.8,60.5,29.53,SE,138,6.0,6.0,86,0.08,,,1.50,Custom v0.1,2013-05-30 22:10:00,
2013-05-30 17:15:00,64.8,60.5,29.53,SSE,151,0.0,2.0,86,0.07,,,1.50,Custom v0.1,2013-05-30 22:15:00,
2013-05-30 17:25:00,65.2,60.6,29.54,SSE,154,0.0,0.0,85,0.05,,,1.50,Custom v0.1,2013-05-30 22:25:00,
2013-05-30 17:30:00,65.2,60.6,29.54,SSE,168,0.0,0.0,85,0.04,,,1.50,Custom v0.1,2013-05-30 22:30:00,
2013-05-30 17:35:00,65.6,60.3,29.53,SSW,199,6.0,6.0,83,0.03,,,1.50,Custom v0.1,2013-05-30 22:35:00,
2013-05-30 17:40:00,65.8,60.5,29.53,SSE,149,11.0,11.0,83,0.03,,,1.50,Custom v0.1,2013-05-30 22:40:00,
2013-05-30 17:45:00,66.0,60.7,29.53,SSE,166,0.0,0.0,83,0.02,,,1.50,Custom v0.1,2013-05-30 22:45:00,
2013-05-30 17:50:00,66.1,61.2,29.55,SSE,165,0.0,5.0,84,0.01,,,1.50,Custom v0.1,2013-05-30 22:50:00,
2013-05-30 17:55:00,66.3,61.0,29.55,SSE,158,0.0,5.0,83,0.01,,,1.50,Custom v0.1,2013-05-30 22:55:00,
2013-05-30 18:00:00,66.4,61.4,29.55,SSW,207,0.0,5.0,84,0.00,,,1.50,Custom v0.1,2013-05-30 23:00:00,
2013-05-30 18:05:00,66.6,61.6,29.55,WSW,241,0.0,0.0,84,0.00,,,1.50,Custom v0.1,2013-05-30 23:05:00,
2013-05-30 18:10:00,67.1,62.1,29.55,SSW,204,0.0,0.0,84,0.00,,,1.50,Custom v0.1,2013-05-30 23:10:00,
2013-05-30 18:20:00,67.8,62.5,29.55,SSE,161,0.0,2.0,83,0.00,,,1.50,Custom v0.1,2013-05-30 23:20:00,
2013-05-30 18:25:00,68.1,62.5,29.55,SW,217,0.0,2.0,82,0.00,,,1.50,Custom v0.1,2013-05-30 23:25:00,
2013-05-30 18:30:00,68.1,62.1,29.55,South,182,0.0,2.0,81,0.00,,,1.50,Custom v0.1,2013-05-30 23:30:00,
2013-05-30 18:35:00,68.1,62.1,29.55,SSE,154,0.0,0.0,81,0.00,,,1.50,Custom v0.1,2013-05-30 23:35:00,
2013-05-30 18:40:00,68.3,62.0,29.55,SSE,166,3.0,3.0,80,0.00,,,1.50,Custom v0.1,2013-05-30 23:40:00,
2013-05-30 18:50:00,68.6,61.9,29.55,WSW,237,0.0,0.0,79,0.00,,,1.50,Custom v0.1,2013-05-30 23:50:00,
2013-05-30 18:55:00,68.8,62.1,29.55,WSW,241,3.0,3.0,79,0.00,,,1.50,Custom v0.1,2013-05-30 23:55:00,
2013-05-30 19:00:00,68.8,62.1,29.55,WSW,244,0.0,0.0,79,0.00,,,1.50,Custom v0.1,2013-05-31 00:00:00,
2013-05-30 19:05:00,68.9,61.9,29.54,SSW,195,7.0,7.0,78,0.00,,,1.50,Custom v0.1,2013-05-31 00:05:00,
2013-05-30 19:10:00,69.1,61.7,29.54,SW,231,1.0,1.0,77,0.00,,,1.50,Custom v0.1,2013-05-31 00:10:00,
2013-05-30 19:15:00,69.1,61.7,29.54,SW,236,3.0,10.0,77,0.00,,,1.50,Custom v0.1,2013-05-31 00:15:00,
2013-05-30 19:20:00,68.9,61.5,29.55,South,176,0.0,7.0,77,0.00,,,1.50,Custom v0.1,2013-05-31 00:20:00,
2013-05-30 19:25:00,68.9,61.9,29.55,South,190,3.0,3.0,78,0.00,,,1.50,Custom v0.1,2013-05-31 00:25:00,
2013-05-30 19:35:00,68.6,61.9,29.56,South,185,1.0,1.0,79,0.00,,,1.50,Custom v0.1,2013-05-31 00:35:00,
2013-05-30 19:45:00,68.4,62.1,29.56,SSW,212,5.0,5.0,80,0.00,,,1.50,Custom v0.1,2013-05-31 00:45:00,
2013-05-30 19:50:00,68.3,62.0,29.57,SSW,213,3.0,3.0,80,0.00,,,1.50,Custom v0.1,2013-05-31 00:50:00,
2013-05-30 19:55:00,68.1,62.1,29.57,WSW,244,0.0,0.0,81,0.00,,,1.50,Custom v0.1,2013-05-31 00:55:00,
2013-05-30 20:00:00,67.9,61.9,29.57,SSW,192,0.0,1.0,81,0.00,,,1.50,Custom v0.1,2013-05-31 01:00:00,
2013-05-30 20:10:00,67.8,62.2,29.58,SW,233,0.0,0.0,82,0.00,,,1.50,Custom v0.1,2013-05-31 01:10:00,
2013-05-30 20:20:00,67.6,62.0,29.59,SSW,209,0.0,0.0,82,0.00,,,1.50,Custom v0.1,2013-05-31 01:20:00,
2013-05-30 20:25:00,67.4,62.1,29.59,SW,236,0.0,0.0,83,0.00,,,1.50,Custom v0.1,2013-05-31 01:25:00,
2013-05-30 20:30:00,67.3,62.0,29.59,SW,217,0.0,0.0,83,0.00,,,1.50,Custom v0.1,2013-05-31 01:30:00,
2013-05-30 20:35:00,67.1,61.8,29.59,SW,223,0.0,5.0,83,0.00,,,1.50,Custom v0.1,2013-05-31 01:35:00,
2013-05-30 20:40:00,66.9,61.9,29.59,SW,230,0.0,0.0,84,0.00,,,1.50,Custom v0.1,2013-05-31 01:40:00,
2013-05-30 20:45:00,66.6,61.6,29.59,SSW,204,0.0,0.0,84,0.00,,,1.50,Custom v0.1,2013-05-31 01:45:00,
2013-05-30 20:50:00,66.4,61.8,29.59,SW,228,0.0,0.0,85,0.00,,,1.50,Custom v0.1,2013-05-31 01:50:00,
2013-05-30 20:55:00,66.3,61.7,29.59,SW,221,0.0,0.0,85,0.00,,,1.50,Custom v0.1,2013-05-31 01:55:00,
2013-05-30 21:00:00,66.0,61.7,29.59,SW,230,0.0,0.0,86,0.00,,,1.50,Custom v0.1,2013-05-31 02:00:00,
2013-05-30 21:05:00,65.8,61.5,29.60,WSW,243,0.0,0.0,86,0.00,,,1.50,Custom v0.1,2013-05-31 02:05:00,
2013-05-30 21:10:00,65.6,61.6,29.60,South,190,0.0,0.0,87,0.00,,,1.50,Custom v0.1,2013-05-31 02:10:00,
2013-05-30 21:20:00,65.5,61.8,29.61,WSW,257,0.0,0.0,88,0.00,,,1.50,Custom v0.1,2013-05-31 02:20:00,
2013-05-30 21:25:00,65.5,61.8,29.61,WSW,244,0.0,0.0,88,0.00,,,1.50,Custom v0.1,2013-05-31 02:25:00,
2013-05-30 21:30:00,65.3,61.6,29.61,SW,236,0.0,0.0,88,0.00,,,1.50,Custom v0.1,2013-05-31 02:30:00,
2013-05-30 21:35:00,65.2,61.5,29.61,SW,234,0.0,0.0,88,0.00,,,1.50,Custom v0.1,2013-05-31 02:35:00,
2013-05-30 21:40:00,65.0,61.7,29.61,SW,234,0.0,0.0,89,0.00,,,1.50,Custom v0.1,2013-05-31 02:40:00,
2013-05-30 21:45:00,64.8,61.5,29.61,SW,234,0.0,0.0,89,0.00,,,1.50,Custom v0.1,2013-05-31 02:45:00,
2013-05-30 21:50:00,64.7,61.4,29.62,SW,234,0.0,0.0,89,0.00,,,1.50,Custom v0.1,2013-05-31 02:50:00,
2013-05-30 21:55:00,64.5,61.5,29.62,SW,234,0.0,0.0,90,0.00,,,1.50,Custom v0.1,2013-05-31 02:55:00,
2013-05-30 22:00:00,64.5,61.5,29.62,SW,234,0.0,0.0,90,0.00,,,1.50,Custom v0.1,2013-05-31 03:00:00,
2013-05-30 22:05:00,64.2,61.2,29.63,SW,234,0.0,0.0,90,0.00,,,1.50,Custom v0.1,2013-05-31 03:05:00,
2013-05-30 22:10:00,64.2,61.5,29.63,SW,233,0.0,0.0,91,0.00,,,1.50,Custom v0.1,2013-05-31 03:10:00,
2013-05-30 22:15:00,64.0,61.6,29.63,SW,233,0.0,0.0,92,0.00,,,1.50,Custom v0.1,2013-05-31 03:15:00,
2013-05-30 22:20:00,64.0,61.6,29.63,SW,228,0.0,0.0,92,0.00,,,1.50,Custom v0.1,2013-05-31 03:20:00,
2013-05-30 22:25:00,64.0,61.6,29.63,SW,226,0.0,0.0,92,0.00,,,1.50,Custom v0.1,2013-05-31 03:25:00,
2013-05-30 22:35:00,63.9,61.5,29.64,SW,227,0.0,0.0,92,0.00,,,1.50,Custom v0.1,2013-05-31 03:35:00,
2013-05-30 22:40:00,63.9,61.5,29.64,SW,227,0.0,0.0,92,0.00,,,1.50,Custom v0.1,2013-05-31 03:40:00,
2013-05-30 22:45:00,63.7,61.3,29.64,SW,227,0.0,0.0,92,0.00,,,1.50,Custom v0.1,2013-05-31 03:45:00,
2013-05-30 22:50:00,63.7,61.3,29.65,SW,227,0.0,0.0,92,0.00,,,1.50,Custom v0.1,2013-05-31 03:50:00,
2013-05-30 22:55:00,63.5,61.1,29.65,SW,227,0.0,0.0,92,0.00,,,1.50,Custom v0.1,2013-05-31 03:55:00,
2013-05-30 23:00:00,63.4,61.0,29.65,SW,227,0.0,0.0,92,0.00,,,1.50,Custom v0.1,2013-05-31 04:00:00,
2013-05-30 23:05:00,63.2,61.1,29.66,SW,227,0.0,0.0,93,0.00,,,1.50,Custom v0.1,2013-05-31 04:05:00,
2013-05-30 23:10:00,63.1,61.0,29.66,SW,226,0.0,0.0,93,0.00,,,1.50,Custom v0.1,2013-05-31 04:10:00,
2013-05-30 23:15:00,62.9,60.8,29.66,SW,227,0.0,0.0,93,0.00,,,1.50,Custom v0.1,2013-05-31 04:15:00,
2013-05-30 23:20:00,62.9,61.1,29.64,SW,227,0.0,0.0,94,0.00,,,1.50,Custom v0.1,2013-05-31 04:20:00,
2013-05-30 23:25:00,62.9,61.1,29.64,SSW,210,0.0,0.0,94,0.00,,,1.50,Custom v0.1,2013-05-31 04:25:00,
2013-05-30 23:30:00,63.1,61.3,29.64,SSW,210,0.0,0.0,94,0.00,,,1.50,Custom v0.1,2013-05-31 04:30:00,
2013-05-30 23:35:00,63.2,61.4,29.63,ESE,116,2.0,6.0,94,0.00,,,1.50,Custom v0.1,2013-05-31 04:35:00,
2013-05-30 23:40:00,63.5,61.4,29.63,SSE,152,5.0,5.0,93,0.00,,,1.50,Custom v0.1,2013-05-31 04:40:00,
2013-05-30 23:45:00,63.7,61.3,29.63,ESE,113,0.0,0.0,92,0.00,,,1.50,Custom v0.1,2013-05-31 04:45:00,
2013-05-30 23:50:00,63.9,61.5,29.61,SSW,197,0.0,0.0,92,0.00,,,1.50,Custom v0.1,2013-05-31 04:50:00,
2013-05-30 23:55:00,63.9,61.5,29.61,SE,140,0.0,0.0,92,0.00,,,1.50,Custom v0.1,2013-05-31 04:55:00,